createdAt,value
2023-01-19T00:00:33.193Z,86.78
2023-01-19T00:02:59.990Z,86.27
2023-01-19T00:05:26.812Z,85.75
2023-01-19T00:07:53.572Z,86.07
2023-01-19T00:10:20.324Z,85.81
2023-01-19T00:12:47.082Z,85.36
2023-01-19T00:15:13.829Z,86.07
2023-01-19T00:17:41.169Z,85.60
2023-01-19T00:20:09.775Z,85.71
2023-01-19T00:22:36.524Z,85.70
2023-01-19T00:25:03.787Z,85.67
2023-01-19T00:27:34.805Z,85.41
2023-01-19T00:30:02.222Z,85.44
2023-01-19T00:32:29.038Z,85.54
2023-01-19T00:34:55.807Z,85.32
2023-01-19T00:37:22.878Z,85.50
2023-01-19T00:39:49.644Z,86.53
2023-01-19T00:42:34.794Z,86.22
2023-01-19T00:45:01.536Z,85.53
2023-01-19T00:47:28.293Z,85.34
2023-01-19T00:49:55.449Z,84.99
2023-01-19T00:52:22.085Z,84.71
2023-01-19T00:54:48.820Z,85.10
2023-01-19T00:57:16.027Z,84.22
2023-01-19T00:59:43.233Z,84.42
2023-01-19T01:02:11.468Z,84.78
2023-01-19T01:04:38.570Z,83.79
2023-01-19T01:07:05.362Z,83.60
2023-01-19T01:09:32.191Z,83.85
2023-01-19T01:11:59.242Z,84.23
2023-01-19T01:14:26.916Z,83.60
2023-01-19T01:16:53.929Z,83.51
2023-01-19T01:19:21.481Z,82.96
2023-01-19T01:21:48.296Z,83.12
2023-01-19T01:24:15.068Z,83.52
2023-01-19T01:26:41.844Z,83.01
2023-01-19T01:29:08.840Z,83.29
2023-01-19T01:31:35.602Z,83.02
2023-01-19T01:34:02.406Z,83.56
2023-01-19T01:36:32.132Z,83.22
2023-01-19T01:38:59.758Z,83.86
2023-01-19T01:41:27.544Z,83.45
2023-01-19T01:43:58.582Z,83.93
2023-01-19T01:46:26.886Z,84.44
2023-01-19T01:49:06.112Z,84.36
2023-01-19T01:51:52.780Z,84.19
2023-01-19T01:54:28.284Z,84.21
2023-01-19T01:56:57.911Z,83.55
2023-01-19T01:59:34.859Z,82.84
2023-01-19T02:02:28.065Z,83.16
2023-01-19T02:04:58.720Z,83.34
2023-01-19T02:08:06.768Z,82.29
2023-01-19T02:10:52.099Z,82.49
2023-01-19T02:13:22.463Z,82.38
2023-01-19T02:15:52.676Z,81.79
2023-01-19T02:18:21.510Z,81.74
2023-01-19T02:20:52.934Z,81.81
2023-01-19T02:23:39.466Z,81.97
2023-01-19T02:26:09.456Z,81.76
2023-01-19T02:28:39.226Z,82.57
2023-01-19T02:31:06.414Z,81.70
2023-01-19T02:33:33.571Z,82.58
2023-01-19T02:36:00.861Z,82.54
2023-01-19T02:38:28.542Z,82.22
2023-01-19T02:40:59.682Z,82.48
2023-01-19T02:43:27.806Z,81.92
2023-01-19T02:45:54.682Z,82.80
2023-01-19T02:48:21.670Z,83.52
2023-01-19T02:51:00.946Z,82.78
2023-01-19T02:53:53.484Z,82.93
2023-01-19T02:57:01.575Z,82.57
2023-01-19T02:59:58.581Z,83.30
2023-01-19T03:02:25.342Z,82.73
2023-01-19T03:05:43.221Z,82.88
2023-01-19T03:08:15.115Z,82.81
2023-01-19T03:10:51.207Z,82.79
2023-01-19T03:13:26.378Z,83.30
2023-01-19T03:15:56.793Z,83.39
2023-01-19T03:18:26.383Z,83.84
2023-01-19T03:20:56.678Z,83.67
2023-01-19T03:23:26.873Z,83.48
2023-01-19T03:25:54.711Z,83.61
2023-01-19T03:28:22.884Z,83.31
2023-01-19T03:30:54.675Z,83.59
2023-01-19T03:33:33.178Z,83.55
2023-01-19T03:36:05.460Z,84.17
2023-01-19T03:38:43.120Z,84.22
2023-01-19T03:41:13.642Z,84.60
2023-01-19T03:43:40.905Z,84.52
2023-01-19T03:46:07.927Z,84.12
2023-01-19T03:48:34.740Z,84.56
2023-01-19T03:51:07.248Z,84.89
2023-01-19T03:53:34.338Z,84.38
2023-01-19T03:56:01.232Z,83.67
2023-01-19T03:58:28.419Z,82.82
2023-01-19T04:00:55.141Z,83.77
2023-01-19T04:03:21.926Z,83.86
2023-01-19T04:05:49.306Z,84.11
2023-01-19T04:08:16.020Z,83.76
2023-01-19T04:10:42.680Z,83.27
2023-01-19T04:13:09.399Z,83.37
2023-01-19T04:15:36.216Z,83.59
2023-01-19T04:18:03.030Z,83.71
2023-01-19T04:20:29.801Z,82.62
2023-01-19T04:23:01.177Z,82.99
2023-01-19T04:25:28.733Z,81.42
2023-01-19T04:27:57.927Z,82.49
2023-01-19T04:30:25.122Z,82.65
2023-01-19T04:32:51.937Z,83.30
2023-01-19T04:35:18.748Z,82.90
2023-01-19T04:37:45.712Z,83.14
2023-01-19T04:40:12.637Z,82.89
2023-01-19T04:42:43.236Z,83.29
2023-01-19T04:45:10.515Z,83.19
2023-01-19T04:47:37.469Z,82.86
2023-01-19T04:50:05.865Z,81.95
2023-01-19T04:52:36.186Z,81.78
2023-01-19T04:55:04.213Z,81.96
2023-01-19T04:57:30.955Z,81.01
2023-01-19T04:59:58.423Z,81.07
2023-01-19T05:02:25.785Z,81.13
2023-01-19T05:04:52.561Z,81.44
2023-01-19T05:07:19.320Z,81.33
2023-01-19T05:09:46.059Z,81.64
2023-01-19T05:12:12.758Z,81.36
2023-01-19T05:14:39.616Z,81.55
2023-01-19T05:17:06.399Z,82.12
2023-01-19T05:19:33.104Z,81.59
2023-01-19T05:21:59.817Z,81.79
2023-01-19T05:24:26.578Z,81.96
2023-01-19T05:26:53.317Z,81.17
2023-01-19T05:29:20.105Z,81.70
2023-01-19T05:31:46.956Z,81.48
2023-01-19T05:34:14.542Z,81.17
2023-01-19T05:36:41.802Z,80.78
2023-01-19T05:39:08.582Z,81.28
2023-01-19T05:41:36.119Z,80.40
2023-01-19T05:44:02.959Z,80.51
2023-01-19T05:46:29.927Z,81.47
2023-01-19T05:48:56.874Z,81.57
2023-01-19T05:51:23.890Z,82.05
2023-01-19T05:53:50.700Z,81.93
2023-01-19T05:56:17.439Z,82.01
2023-01-19T05:58:44.219Z,82.46
2023-01-19T06:01:11.214Z,82.38
2023-01-19T06:03:39.556Z,82.04
2023-01-19T06:06:06.518Z,81.82
2023-01-19T06:08:33.294Z,82.15
2023-01-19T06:11:00.456Z,82.45
2023-01-19T06:13:27.213Z,82.61
2023-01-19T06:16:00.925Z,82.34
2023-01-19T06:18:28.412Z,82.98
2023-01-19T06:20:58.741Z,82.92
2023-01-19T06:23:30.985Z,83.08
2023-01-19T06:25:58.000Z,83.42
2023-01-19T06:28:25.314Z,83.78
2023-01-19T06:30:53.590Z,83.85
2023-01-19T06:33:20.759Z,88.79
2023-01-19T06:35:48.891Z,88.33
2023-01-19T06:38:18.531Z,86.44
2023-01-19T06:40:46.627Z,84.14
2023-01-19T06:43:13.391Z,84.64
2023-01-19T06:45:40.126Z,84.43
2023-01-19T06:48:08.641Z,82.95
2023-01-19T06:50:35.634Z,84.69
2023-01-19T06:53:03.088Z,82.86
2023-01-19T06:55:32.772Z,82.91
2023-01-19T06:58:01.371Z,82.48
2023-01-19T07:00:29.927Z,82.55
2023-01-19T07:02:57.997Z,81.77
2023-01-19T07:05:25.300Z,82.00
2023-01-19T07:07:53.908Z,81.54
2023-01-19T07:10:21.423Z,81.85
2023-01-19T07:12:48.548Z,81.96
2023-01-19T07:15:16.909Z,81.48
2023-01-19T07:17:43.965Z,82.44
2023-01-19T07:20:14.209Z,82.19
2023-01-19T07:22:41.966Z,82.82
2023-01-19T07:25:14.004Z,82.59
2023-01-19T07:27:40.793Z,82.80
2023-01-19T07:30:08.680Z,83.36
2023-01-19T07:32:36.046Z,82.93
2023-01-19T07:35:03.234Z,82.55
2023-01-19T07:37:31.664Z,82.78
2023-01-19T07:39:58.556Z,83.08
2023-01-19T07:42:26.146Z,82.75
2023-01-19T07:44:53.562Z,82.37
2023-01-19T07:47:20.608Z,81.76
2023-01-19T07:49:47.438Z,82.65
2023-01-19T07:52:14.276Z,82.64
2023-01-19T07:54:41.712Z,82.43
2023-01-19T07:57:08.425Z,82.65
2023-01-19T07:59:35.202Z,82.83
2023-01-19T08:02:12.372Z,82.44
2023-01-19T08:04:45.430Z,82.02
2023-01-19T08:07:43.833Z,82.91
2023-01-19T08:10:28.483Z,82.66
2023-01-19T08:12:59.343Z,82.87
2023-01-19T08:15:38.073Z,82.67
2023-01-19T08:18:11.884Z,82.68
2023-01-19T08:20:42.801Z,82.54
2023-01-19T08:23:11.775Z,82.70
2023-01-19T08:26:23.117Z,82.54
2023-01-19T08:29:08.924Z,83.16
2023-01-19T08:31:37.778Z,82.66
2023-01-19T08:34:21.390Z,83.05
2023-01-19T08:37:14.455Z,83.20
2023-01-19T08:39:48.028Z,83.28
2023-01-19T08:42:22.672Z,83.43
2023-01-19T08:44:58.103Z,82.87
2023-01-19T08:47:35.525Z,83.01
2023-01-19T08:50:06.821Z,83.12
2023-01-19T08:52:44.542Z,83.09
2023-01-19T08:55:12.191Z,82.93
2023-01-19T08:57:38.967Z,83.53
2023-01-19T09:00:07.923Z,83.04
2023-01-19T09:02:34.966Z,82.49
2023-01-19T09:05:01.754Z,82.75
2023-01-19T09:07:30.557Z,82.28
2023-01-19T09:09:59.232Z,82.69
2023-01-19T09:12:26.036Z,82.36
2023-01-19T09:14:52.816Z,82.73
2023-01-19T09:17:19.581Z,82.18
2023-01-19T09:19:46.338Z,82.36
2023-01-19T09:22:13.185Z,82.10
2023-01-19T09:24:41.129Z,82.65
2023-01-19T09:27:08.977Z,82.89
2023-01-19T09:29:36.525Z,82.41
2023-01-19T09:32:03.431Z,82.29
2023-01-19T09:34:31.406Z,82.18
2023-01-19T09:36:58.257Z,82.32
2023-01-19T09:39:25.096Z,82.28
2023-01-19T09:42:16.019Z,82.47
2023-01-19T09:44:43.880Z,82.01
2023-01-19T09:47:15.241Z,83.22
2023-01-19T09:49:46.495Z,83.71
2023-01-19T09:52:14.245Z,83.48
2023-01-19T09:54:59.414Z,84.11
2023-01-19T09:57:27.469Z,83.81
2023-01-19T09:59:59.527Z,83.40
2023-01-19T10:02:46.444Z,83.29
2023-01-19T10:05:40.253Z,83.92
2023-01-19T10:08:31.860Z,83.89
2023-01-19T10:10:58.608Z,83.05
2023-01-19T10:13:47.425Z,83.12
2023-01-19T10:16:49.548Z,83.89
2023-01-19T10:19:19.023Z,83.96
2023-01-19T10:21:46.755Z,83.59
2023-01-19T10:24:24.068Z,83.88
2023-01-19T10:26:53.265Z,84.57
2023-01-19T10:29:29.124Z,84.12
2023-01-19T10:32:14.803Z,83.74
2023-01-19T10:34:42.046Z,84.07
2023-01-19T10:37:27.759Z,82.66
2023-01-19T10:40:01.294Z,84.04
2023-01-19T10:42:31.322Z,83.63
2023-01-19T10:44:58.301Z,84.64
2023-01-19T10:47:32.382Z,85.01
2023-01-19T10:49:59.255Z,84.46
2023-01-19T10:52:39.838Z,84.18
2023-01-19T10:56:22.997Z,83.47
2023-01-19T11:21:06.439Z,84.45
2023-01-19T11:23:47.075Z,84.14
2023-01-19T11:26:35.543Z,84.62
2023-01-19T11:29:03.491Z,83.93
2023-01-19T11:31:31.509Z,83.85
2023-01-19T11:34:03.801Z,83.64
2023-01-19T11:36:37.070Z,83.47
2023-01-19T11:39:21.330Z,83.64
2023-01-19T11:41:51.201Z,83.50
2023-01-19T11:44:27.106Z,82.77
2023-01-19T11:46:57.179Z,82.70
2023-01-19T11:49:44.189Z,82.68
2023-01-19T11:52:24.519Z,83.07
2023-01-19T11:54:59.555Z,82.99
2023-01-19T11:57:27.270Z,83.71
2023-01-19T12:00:03.470Z,82.50
2023-01-19T12:02:43.694Z,82.62
2023-01-19T12:05:15.197Z,82.94
2023-01-19T12:07:43.683Z,83.24
2023-01-19T12:10:27.099Z,84.21
2023-01-19T12:12:53.981Z,82.13
2023-01-19T12:15:31.736Z,82.54
2023-01-19T12:18:00.916Z,82.84
2023-01-19T12:20:52.814Z,82.16
2023-01-19T12:23:30.242Z,82.77
2023-01-19T12:26:16.445Z,83.06
2023-01-19T12:28:46.619Z,83.45
2023-01-19T12:31:18.357Z,83.21
2023-01-19T12:33:45.367Z,83.72
2023-01-19T12:36:38.716Z,83.62
2023-01-19T12:39:08.139Z,83.75
2023-01-19T12:41:35.866Z,82.75
2023-01-19T12:44:11.991Z,84.10
2023-01-19T12:46:39.063Z,84.24
2023-01-19T12:49:14.513Z,84.11
2023-01-19T12:51:41.709Z,84.06
2023-01-19T12:54:16.337Z,83.56
2023-01-19T12:56:43.121Z,83.87
2023-01-19T12:59:24.166Z,83.64
2023-01-19T13:02:25.603Z,84.00
2023-01-19T13:05:23.755Z,83.27
2023-01-19T13:08:02.808Z,83.70
2023-01-19T13:11:00.805Z,83.81
2023-01-19T13:13:30.809Z,84.18
2023-01-19T13:16:27.476Z,84.55
2023-01-19T13:19:06.436Z,84.77
2023-01-19T13:21:34.537Z,84.47
2023-01-19T13:24:06.377Z,85.08
2023-01-19T13:26:35.511Z,84.10
2023-01-19T13:29:05.119Z,83.66
2023-01-19T13:31:36.506Z,84.11
2023-01-19T13:34:04.073Z,83.51
2023-01-19T13:36:35.952Z,83.82
2023-01-19T13:39:05.641Z,83.71
2023-01-19T13:41:38.213Z,84.87
2023-01-19T13:44:10.735Z,84.99
2023-01-19T13:46:38.693Z,84.38
2023-01-19T13:49:17.804Z,83.86
2023-01-19T13:51:45.094Z,83.55
2023-01-19T13:54:17.265Z,84.59
2023-01-19T13:56:50.039Z,84.11
2023-01-19T13:59:16.890Z,83.68
2023-01-19T14:01:46.029Z,83.39
2023-01-19T14:04:29.867Z,83.95
2023-01-19T14:06:58.967Z,84.24
2023-01-19T14:09:25.720Z,84.15
2023-01-19T14:12:14.654Z,83.71
2023-01-19T14:14:42.928Z,83.79
2023-01-19T14:17:25.156Z,84.48
2023-01-19T14:19:55.533Z,83.72
2023-01-19T14:22:43.612Z,84.00
2023-01-19T14:25:35.989Z,85.08
2023-01-19T14:28:28.629Z,84.60
2023-01-19T14:31:00.703Z,84.19
2023-01-19T14:33:51.977Z,83.30
2023-01-19T14:36:33.243Z,84.86
2023-01-19T14:39:01.205Z,85.00
2023-01-19T14:41:34.111Z,83.86
2023-01-19T14:44:01.013Z,84.80
2023-01-19T14:46:28.218Z,84.22
2023-01-19T14:49:03.527Z,83.99
2023-01-19T14:51:30.875Z,84.47
2023-01-19T14:53:59.915Z,84.85
2023-01-19T14:56:29.519Z,84.64
2023-01-19T14:58:58.167Z,84.42
2023-01-19T15:01:28.494Z,84.60
2023-01-19T15:03:58.508Z,84.15
2023-01-19T15:06:26.169Z,84.22
2023-01-19T15:08:53.661Z,85.30
2023-01-19T15:11:27.516Z,84.10
2023-01-19T15:13:55.456Z,84.81
2023-01-19T15:16:23.526Z,84.19
2023-01-19T15:18:50.467Z,84.07
2023-01-19T15:21:26.762Z,85.05
2023-01-19T15:23:58.323Z,84.74
2023-01-19T15:26:26.506Z,84.47
2023-01-19T15:28:53.532Z,84.43
2023-01-19T15:31:24.624Z,84.45
2023-01-19T15:33:51.525Z,85.16
2023-01-19T15:36:20.367Z,84.73
2023-01-19T15:38:47.677Z,84.11
2023-01-19T15:41:15.436Z,85.04
2023-01-19T15:43:42.228Z,84.85
2023-01-19T15:46:11.448Z,85.01
2023-01-19T15:48:38.185Z,84.52
2023-01-19T15:51:05.625Z,84.56
2023-01-19T15:53:32.385Z,84.78
2023-01-19T15:55:59.134Z,85.12
2023-01-19T15:58:26.659Z,84.64
2023-01-19T16:00:55.357Z,85.39
2023-01-19T16:03:22.409Z,85.21
2023-01-19T16:05:49.398Z,84.39
2023-01-19T16:08:16.259Z,84.66
2023-01-19T16:10:43.458Z,84.62
2023-01-19T16:13:11.672Z,85.05
2023-01-19T16:15:39.137Z,84.59
2023-01-19T16:18:06.588Z,85.03
2023-01-19T16:20:33.568Z,84.36
2023-01-19T16:23:13.765Z,83.95
2023-01-19T16:25:41.849Z,84.49
2023-01-19T16:28:09.112Z,84.15
2023-01-19T16:30:35.958Z,84.06
2023-01-19T16:33:02.744Z,84.29
2023-01-19T16:35:29.593Z,84.43
2023-01-19T16:37:56.502Z,84.01
2023-01-19T16:40:23.304Z,84.13
2023-01-19T16:42:50.678Z,83.65
2023-01-19T16:45:17.449Z,83.38
2023-01-19T16:47:50.450Z,84.26
2023-01-19T16:50:17.529Z,83.98
2023-01-19T16:52:44.815Z,83.40
2023-01-19T16:55:11.708Z,83.13
2023-01-19T16:57:41.403Z,83.76
2023-01-19T17:00:10.519Z,83.29
2023-01-19T17:02:37.679Z,83.77
2023-01-19T17:05:04.957Z,84.29
2023-01-19T17:07:32.043Z,84.50
2023-01-19T17:10:00.025Z,84.59
2023-01-19T17:12:28.058Z,84.06
2023-01-19T17:14:55.040Z,84.64
2023-01-19T17:17:22.125Z,83.79
2023-01-19T17:19:48.985Z,83.85
2023-01-19T17:22:15.677Z,84.03
2023-01-19T17:24:43.313Z,83.87
2023-01-19T17:27:10.361Z,84.22
2023-01-19T17:29:37.345Z,84.68
2023-01-19T17:32:04.533Z,85.08
2023-01-19T17:34:32.010Z,84.64
2023-01-19T17:37:03.044Z,85.59
2023-01-19T17:39:30.074Z,85.71
2023-01-19T17:41:57.097Z,85.05
2023-01-19T17:44:24.088Z,85.08
2023-01-19T17:46:51.044Z,85.17
2023-01-19T17:49:21.448Z,85.70
2023-01-19T17:51:53.537Z,84.89
2023-01-19T17:54:20.701Z,86.07
2023-01-19T17:56:47.763Z,84.47
2023-01-19T17:59:14.753Z,84.59
2023-01-19T18:01:42.870Z,84.90
2023-01-19T18:04:10.206Z,84.54
2023-01-19T18:06:37.976Z,84.30
2023-01-19T18:09:07.315Z,84.75
2023-01-19T18:11:34.795Z,84.41
2023-01-19T18:14:02.167Z,84.31
2023-01-19T18:16:30.151Z,84.52
2023-01-19T18:18:58.303Z,83.82
2023-01-19T18:21:28.215Z,83.81
2023-01-19T18:24:12.934Z,84.05
2023-01-19T18:26:39.983Z,84.52
2023-01-19T18:29:06.974Z,84.31
2023-01-19T18:31:34.031Z,84.52
2023-01-19T18:34:01.064Z,84.58
2023-01-19T18:36:28.418Z,85.23
2023-01-19T18:38:55.519Z,84.14
2023-01-19T18:41:22.617Z,83.86
2023-01-19T18:43:49.726Z,84.62
2023-01-19T18:46:16.844Z,84.98
2023-01-19T18:48:43.819Z,84.59
2023-01-19T18:51:13.072Z,84.75
2023-01-19T18:53:40.376Z,84.14
2023-01-19T18:56:07.968Z,85.07
2023-01-19T18:58:37.293Z,84.75
2023-01-19T19:01:05.006Z,85.05
2023-01-19T19:03:32.107Z,85.52
2023-01-19T19:06:03.428Z,86.01
2023-01-19T19:08:30.617Z,84.88
2023-01-19T19:10:57.583Z,84.45
2023-01-19T19:13:25.345Z,84.49
2023-01-19T19:15:52.676Z,84.05
2023-01-19T19:18:19.928Z,84.45
2023-01-19T19:20:47.009Z,84.49
2023-01-19T19:23:13.887Z,84.93
2023-01-19T19:25:40.870Z,84.92
2023-01-19T19:28:08.588Z,84.42
2023-01-19T19:30:37.930Z,84.69
2023-01-19T19:33:05.129Z,84.16
2023-01-19T19:35:32.112Z,83.94
2023-01-19T19:37:59.557Z,84.02
2023-01-19T19:40:27.714Z,84.50
2023-01-19T19:42:55.837Z,84.32
2023-01-19T19:45:24.803Z,84.56
2023-01-19T19:47:51.745Z,84.42
2023-01-19T19:50:19.252Z,84.46
2023-01-19T19:52:46.325Z,84.24
2023-01-19T19:55:13.650Z,84.47
2023-01-19T19:57:40.831Z,84.33
2023-01-19T20:00:08.800Z,84.04
2023-01-19T20:02:36.619Z,84.22
2023-01-19T20:05:04.545Z,83.83
2023-01-19T20:07:31.778Z,84.00
2023-01-19T20:09:58.950Z,84.05
2023-01-19T20:12:26.017Z,84.12
2023-01-19T20:14:53.185Z,84.18
2023-01-19T20:17:20.787Z,84.13
2023-01-19T20:19:49.020Z,83.96
2023-01-19T20:22:16.331Z,83.76
2023-01-19T20:24:43.039Z,83.88
2023-01-19T20:27:10.244Z,83.63
2023-01-19T20:29:37.308Z,84.31
2023-01-19T20:32:04.117Z,84.25
2023-01-19T20:34:33.322Z,83.50
2023-01-19T20:37:01.753Z,83.59
2023-01-19T20:39:33.084Z,83.39
2023-01-19T20:42:00.758Z,83.62
2023-01-19T20:44:27.811Z,83.88
2023-01-19T20:46:55.269Z,83.12
2023-01-19T20:49:22.703Z,83.44
2023-01-19T20:51:51.903Z,83.35
2023-01-19T20:54:26.832Z,83.26
2023-01-19T20:56:54.107Z,83.10
2023-01-19T20:59:21.353Z,83.17
2023-01-19T21:01:48.951Z,83.74
2023-01-19T21:04:17.512Z,83.38
2023-01-19T21:06:44.569Z,82.75
2023-01-19T21:09:11.449Z,82.03
2023-01-19T21:11:39.664Z,82.47
2023-01-19T21:14:07.144Z,82.05
2023-01-19T21:16:36.363Z,81.78
2023-01-19T21:19:04.481Z,82.05
2023-01-19T21:21:32.871Z,81.92
2023-01-19T21:24:02.789Z,82.28
2023-01-19T21:26:30.290Z,82.36
2023-01-19T21:29:01.252Z,82.25
2023-01-19T21:31:28.474Z,82.44
2023-01-19T21:33:56.504Z,82.58
2023-01-19T21:36:24.575Z,81.83
2023-01-19T21:38:52.314Z,82.45
2023-01-19T21:41:19.162Z,82.53
2023-01-19T21:43:46.171Z,82.33
2023-01-19T21:46:30.433Z,82.14
2023-01-19T21:48:58.132Z,82.77
2023-01-19T21:51:24.978Z,82.42
2023-01-19T21:53:59.378Z,82.64
2023-01-19T21:56:28.103Z,82.24
2023-01-19T21:58:56.211Z,82.13
2023-01-19T22:01:26.318Z,81.71
2023-01-19T22:03:54.720Z,81.68
2023-01-19T22:06:22.115Z,81.41
2023-01-19T22:08:48.938Z,82.29
2023-01-19T22:11:18.765Z,83.09
2023-01-19T22:13:45.680Z,82.25
2023-01-19T22:16:14.432Z,82.15
2023-01-19T22:18:43.400Z,82.21
2023-01-19T22:21:36.216Z,81.80
2023-01-19T22:24:04.256Z,81.50
2023-01-19T22:26:33.929Z,81.49
2023-01-19T22:29:01.606Z,81.11
2023-01-19T22:31:29.423Z,81.62
2023-01-19T22:33:56.760Z,81.48
2023-01-19T22:36:31.869Z,81.23
2023-01-19T22:39:00.605Z,80.72
2023-01-19T22:41:32.867Z,81.09
2023-01-19T22:44:01.773Z,80.95
2023-01-19T22:46:31.201Z,80.75
2023-01-19T22:48:58.921Z,80.98
2023-01-19T22:51:26.367Z,80.58
2023-01-19T22:53:53.260Z,80.59
2023-01-19T22:56:22.138Z,80.61
2023-01-19T22:58:49.364Z,81.01
2023-01-19T23:01:20.317Z,81.32
2023-01-19T23:03:47.372Z,81.57
2023-01-19T23:06:19.721Z,81.73
2023-01-19T23:08:46.544Z,82.46
2023-01-19T23:11:18.290Z,82.65
2023-01-19T23:13:45.484Z,82.95
2023-01-19T23:16:13.112Z,83.45
2023-01-19T23:18:40.786Z,83.67
2023-01-19T23:21:13.125Z,83.90
2023-01-19T23:23:40.174Z,84.37
2023-01-19T23:26:13.003Z,84.82
2023-01-19T23:28:40.015Z,85.26
2023-01-19T23:31:36.522Z,85.41
2023-01-19T23:34:05.733Z,85.65
2023-01-19T23:36:34.537Z,85.75
2023-01-19T23:39:06.635Z,85.70
2023-01-19T23:41:36.488Z,86.10
2023-01-19T23:44:03.544Z,85.76
2023-01-19T23:46:30.487Z,85.88
2023-01-19T23:48:57.482Z,86.02
2023-01-19T23:51:26.935Z,85.66
2023-01-19T23:53:53.909Z,85.01
2023-01-19T23:56:25.652Z,85.04
2023-01-19T23:59:03.947Z,84.48
